createdAt,value
2024-01-24T00:01:44.099Z,101209.06
2024-01-24T00:04:48.076Z,101206.63
2024-01-24T00:07:50.743Z,101222.91
2024-01-24T00:10:53.399Z,101242.81
2024-01-24T00:13:56.018Z,101239.91
2024-01-24T00:16:58.636Z,101254.25
2024-01-24T00:20:02.984Z,101200.72
2024-01-24T00:23:05.841Z,101217.47
2024-01-24T00:26:08.974Z,101250.19
2024-01-24T00:29:11.573Z,101229.34
2024-01-24T00:32:14.247Z,101227.75
2024-01-24T00:35:18.329Z,101224.50
2024-01-24T00:38:21.044Z,101246.84
2024-01-24T00:41:23.654Z,101259.63
2024-01-24T00:44:27.020Z,101248.00
2024-01-24T00:47:29.644Z,101231.59
2024-01-24T00:50:35.638Z,101229.97
2024-01-24T00:53:38.784Z,101261.88
2024-01-24T00:56:41.760Z,101241.03
2024-01-24T00:59:44.407Z,101188.25
2024-01-24T01:02:47.079Z,101225.50
2024-01-24T01:05:51.085Z,101204.50
2024-01-24T01:08:53.714Z,101181.16
2024-01-24T01:11:56.373Z,101193.00
2024-01-24T01:14:59.031Z,101236.84
2024-01-24T01:18:01.649Z,101233.28
2024-01-24T01:21:05.746Z,101243.25
2024-01-24T01:24:09.275Z,101211.72
2024-01-24T01:27:11.971Z,101194.19
2024-01-24T01:30:15.437Z,101204.19
2024-01-24T01:33:18.419Z,101231.25
2024-01-24T01:36:23.664Z,101233.72
2024-01-24T01:39:26.743Z,101252.09
2024-01-24T01:42:29.408Z,101221.03
2024-01-24T01:45:33.111Z,101214.66
2024-01-24T01:48:36.038Z,101230.91
2024-01-24T01:51:40.724Z,101227.31
2024-01-24T01:54:44.020Z,101252.81
2024-01-24T01:57:46.746Z,101258.25
2024-01-24T02:00:49.429Z,101207.13
2024-01-24T02:03:52.378Z,101240.47
2024-01-24T02:06:57.608Z,101214.47
2024-01-24T02:10:00.427Z,101229.09
2024-01-24T02:13:03.846Z,101276.09
2024-01-24T02:16:07.469Z,101256.09
2024-01-24T02:19:10.255Z,101263.97
2024-01-24T02:22:14.345Z,101285.38
2024-01-24T02:25:18.341Z,101273.31
2024-01-24T02:28:21.137Z,101260.06
2024-01-24T02:31:23.780Z,101273.09
2024-01-24T02:34:26.535Z,101264.97
2024-01-24T02:37:29.170Z,101261.34
2024-01-24T02:40:33.150Z,101287.50
2024-01-24T02:43:35.850Z,101275.88
2024-01-24T02:46:38.514Z,101268.91
2024-01-24T02:49:41.752Z,101277.03
2024-01-24T02:52:44.572Z,101251.94
2024-01-24T02:55:48.505Z,101244.63
2024-01-24T02:58:51.226Z,101297.13
2024-01-24T03:01:53.826Z,101295.00
2024-01-24T03:04:56.513Z,101273.53
2024-01-24T03:07:59.445Z,101301.41
2024-01-24T03:11:03.402Z,101284.69
2024-01-24T03:14:05.974Z,101288.66
2024-01-24T03:17:09.155Z,101283.75
2024-01-24T03:20:13.570Z,101290.03
2024-01-24T03:23:17.869Z,101309.03
2024-01-24T03:26:21.858Z,101334.13
2024-01-24T03:29:24.482Z,101312.50
2024-01-24T03:32:27.224Z,101303.22
2024-01-24T03:35:29.858Z,101284.75
2024-01-24T03:38:32.450Z,101305.75
2024-01-24T03:41:37.372Z,101308.53
2024-01-24T03:44:40.517Z,101306.91
2024-01-24T03:47:43.173Z,101291.34
2024-01-24T03:50:45.777Z,101297.97
2024-01-24T03:53:48.355Z,101326.53
2024-01-24T03:56:52.368Z,101324.06
2024-01-24T03:59:55.013Z,101322.44
2024-01-24T04:02:57.668Z,101333.59
2024-01-24T04:06:00.471Z,101323.16
2024-01-24T04:09:04.343Z,101325.44
2024-01-24T04:12:08.593Z,101316.63
2024-01-24T04:15:11.666Z,101321.25
2024-01-24T04:18:14.585Z,101320.78
2024-01-24T04:21:17.384Z,101346.66
2024-01-24T04:24:20.079Z,101349.91
2024-01-24T04:27:24.705Z,101340.41
2024-01-24T04:30:27.581Z,101360.38
2024-01-24T04:33:30.565Z,101374.78
2024-01-24T04:36:33.578Z,101371.66
2024-01-24T04:39:36.588Z,101371.66
2024-01-24T04:42:40.725Z,101383.72
2024-01-24T04:45:43.475Z,101380.00
2024-01-24T04:48:46.263Z,101399.50
2024-01-24T04:51:49.950Z,101408.31
2024-01-24T04:54:53.524Z,101403.78
2024-01-24T04:57:57.670Z,101396.94
2024-01-24T05:01:01.436Z,101418.25
2024-01-24T05:04:04.405Z,101414.19
2024-01-24T05:07:07.386Z,101417.97
2024-01-24T05:10:10.468Z,101380.50
2024-01-24T05:13:14.540Z,101402.63
2024-01-24T05:16:17.187Z,101392.84
2024-01-24T05:19:19.894Z,101411.41
2024-01-24T05:22:22.735Z,101402.09
2024-01-24T05:25:25.500Z,101414.59
2024-01-24T05:28:29.457Z,101411.31
2024-01-24T05:31:32.139Z,101416.06
2024-01-24T05:34:34.926Z,101430.31
2024-01-24T05:37:37.679Z,101449.34
2024-01-24T05:40:40.290Z,101450.84
2024-01-24T05:43:44.283Z,101471.78
2024-01-24T05:46:46.916Z,101471.50
2024-01-24T05:49:49.813Z,101499.06
2024-01-24T05:52:52.494Z,101512.97
2024-01-24T05:55:55.666Z,101501.53
2024-01-24T05:58:59.656Z,101516.59
2024-01-24T06:02:02.401Z,101514.97
2024-01-24T06:05:05.701Z,101532.34
2024-01-24T06:08:08.483Z,101527.09
2024-01-24T06:11:12.340Z,101536.25
2024-01-24T06:14:16.305Z,101521.22
2024-01-24T06:17:18.873Z,101547.84
2024-01-24T06:20:21.487Z,101533.44
2024-01-24T06:23:24.162Z,101527.34
2024-01-24T06:26:26.819Z,101552.22
2024-01-24T06:30:15.542Z,101554.81
2024-01-24T06:32:53.648Z,101574.94
2024-01-24T06:35:56.385Z,101577.03
2024-01-24T06:38:59.027Z,101591.78
2024-01-24T06:42:01.933Z,101592.59
2024-01-24T06:45:07.304Z,101604.06
2024-01-24T06:48:09.978Z,101629.94
2024-01-24T06:51:14.309Z,101602.09
2024-01-24T06:54:17.436Z,101599.66
2024-01-24T06:57:20.150Z,101630.75
2024-01-24T07:00:24.606Z,101609.97
2024-01-24T07:03:27.603Z,101609.16
2024-01-24T07:06:30.365Z,101620.28
2024-01-24T07:09:33.434Z,101620.28
2024-01-24T07:12:36.095Z,101616.38
2024-01-24T07:15:40.865Z,101629.78
2024-01-24T07:18:43.653Z,101630.94
2024-01-24T07:21:47.265Z,101639.28
2024-01-24T07:24:49.968Z,101641.56
2024-01-24T07:27:53.303Z,101648.78
2024-01-24T07:30:57.393Z,101664.66
2024-01-24T07:34:00.404Z,101688.88
2024-01-24T07:37:03.215Z,101717.88
2024-01-24T07:40:07.043Z,101713.13
2024-01-24T07:43:09.817Z,101710.69
2024-01-24T07:46:14.250Z,101712.31
2024-01-24T07:49:17.066Z,101716.25
2024-01-24T07:52:28.711Z,101732.13
2024-01-24T07:55:51.214Z,101740.13
2024-01-24T07:58:58.999Z,101738.53
2024-01-24T08:02:04.252Z,101728.53
2024-01-24T08:05:07.572Z,101726.56
2024-01-24T08:08:10.541Z,101759.16
2024-01-24T08:11:13.587Z,101767.19
2024-01-24T08:14:16.289Z,101773.53
2024-01-24T08:17:20.377Z,101759.63
2024-01-24T08:20:23.254Z,101758.47
2024-01-24T08:23:34.007Z,101764.03
2024-01-24T08:26:41.255Z,101756.84
2024-01-24T08:29:44.509Z,101785.16
2024-01-24T08:32:49.167Z,101809.59
2024-01-24T08:35:52.259Z,101798.44
2024-01-24T08:38:54.842Z,101804.66
2024-01-24T08:41:57.677Z,101792.88
2024-01-24T08:45:00.287Z,101815.16
2024-01-24T08:48:04.648Z,101819.06
2024-01-24T08:51:07.405Z,101828.25
2024-01-24T08:54:10.030Z,101848.56
2024-01-24T08:57:12.726Z,101829.88
2024-01-24T09:00:15.976Z,101823.97
2024-01-24T09:03:20.967Z,101854.44
2024-01-24T09:06:23.889Z,101857.06
2024-01-24T09:09:26.865Z,101878.03
2024-01-24T09:12:29.584Z,101870.81
2024-01-24T09:15:32.762Z,101915.38
2024-01-24T09:18:39.631Z,101911.44
2024-01-24T09:21:42.698Z,101915.19
2024-01-24T09:24:45.913Z,101929.13
2024-01-24T09:27:48.754Z,101917.97
2024-01-24T09:30:51.462Z,101937.31
2024-01-24T09:33:55.642Z,101913.72
2024-01-24T09:36:58.580Z,101914.72
2024-01-24T09:40:01.527Z,101923.72
2024-01-24T09:43:04.417Z,101936.97
2024-01-24T09:46:07.493Z,101939.28
2024-01-24T09:49:11.824Z,101966.00
2024-01-24T09:52:14.733Z,101959.25
2024-01-24T09:55:20.420Z,101969.28
2024-01-24T09:58:23.169Z,101963.38
2024-01-24T10:01:25.910Z,101988.44
2024-01-24T10:04:29.938Z,101983.84
2024-01-24T10:07:32.744Z,101996.78
2024-01-24T10:10:35.417Z,102014.66
2024-01-24T10:13:38.845Z,102046.84
2024-01-24T10:16:43.354Z,102044.22
2024-01-24T10:19:47.401Z,102037.19
2024-01-24T10:22:51.286Z,102043.56
2024-01-24T10:25:53.983Z,102044.56
2024-01-24T10:28:56.775Z,102047.81
2024-01-24T10:32:00.153Z,102025.16
2024-01-24T10:35:06.967Z,102055.31
2024-01-24T10:38:10.805Z,102046.97
2024-01-24T10:41:14.208Z,102080.41
2024-01-24T10:44:18.656Z,102070.09
2024-01-24T10:47:22.467Z,102075.22
2024-01-24T10:50:26.744Z,102059.31
2024-01-24T10:53:29.443Z,102064.88
2024-01-24T10:56:32.385Z,102074.38
2024-01-24T10:59:35.128Z,102076.97
2024-01-24T11:02:38.224Z,102087.47
2024-01-24T11:05:44.555Z,102092.78
2024-01-24T11:08:51.267Z,102087.19
2024-01-24T11:11:55.573Z,102110.09
2024-01-24T11:15:04.362Z,102110.09
2024-01-24T11:18:24.013Z,102107.00
2024-01-24T11:21:30.426Z,102131.78
2024-01-24T11:24:49.061Z,102135.56
2024-01-24T11:27:57.836Z,102147.34
2024-01-24T11:31:00.678Z,102155.72
2024-01-24T11:34:10.170Z,102159.00
2024-01-24T11:37:16.269Z,102169.50
2024-01-24T11:40:19.580Z,102166.06
2024-01-24T11:43:25.983Z,102154.28
2024-01-24T11:46:29.161Z,102180.97
2024-01-24T11:49:32.986Z,102188.19
2024-01-24T11:52:37.076Z,102191.66
2024-01-24T11:55:39.697Z,102193.63
2024-01-24T11:58:42.498Z,102185.59
2024-01-24T12:01:45.782Z,102197.72
2024-01-24T12:04:51.234Z,102195.09
2024-01-24T12:07:55.258Z,102215.75
2024-01-24T12:10:57.917Z,102235.41
2024-01-24T12:14:00.605Z,102211.91
2024-01-24T12:17:09.896Z,102205.19
2024-01-24T12:20:26.561Z,102227.94
2024-01-24T12:23:30.670Z,102224.66
2024-01-24T12:26:33.543Z,102257.25
2024-01-24T12:29:36.198Z,102256.44
2024-01-24T12:32:39.059Z,102261.19
2024-01-24T12:35:45.253Z,102268.72
2024-01-24T12:38:51.328Z,102256.28
2024-01-24T12:41:54.114Z,102261.53
2024-01-24T12:44:56.767Z,102266.59
2024-01-24T12:47:59.601Z,102276.59
2024-01-24T12:51:02.300Z,102268.06
2024-01-24T12:54:06.914Z,102272.63
2024-01-24T12:57:09.587Z,102289.34
2024-01-24T13:00:13.369Z,102282.94
2024-01-24T13:03:16.391Z,102278.19
2024-01-24T13:06:20.635Z,102297.72
2024-01-24T13:09:24.830Z,102308.34
2024-01-24T13:12:27.730Z,102307.34
2024-01-24T13:15:33.519Z,102313.22
2024-01-24T13:18:36.294Z,102316.00
2024-01-24T13:21:42.662Z,102331.91
2024-01-24T13:24:47.899Z,102345.34
2024-01-24T13:27:56.768Z,102342.03
2024-01-24T13:30:59.537Z,102361.53
2024-01-24T13:34:02.288Z,102351.53
2024-01-24T13:37:05.014Z,102355.47
2024-01-24T13:40:12.566Z,102359.38
2024-01-24T13:43:16.321Z,102342.66
2024-01-24T13:46:19.073Z,102356.28
2024-01-24T13:49:21.989Z,102373.81
2024-01-24T13:52:24.752Z,102368.06
2024-01-24T13:55:28.689Z,102389.53
2024-01-24T13:58:31.527Z,102386.22
2024-01-24T14:01:38.276Z,102375.72
2024-01-24T14:04:45.706Z,102385.41
2024-01-24T14:07:48.536Z,102402.13
2024-01-24T14:10:52.530Z,102401.94
2024-01-24T14:13:55.166Z,102396.38
2024-01-24T14:16:57.818Z,102408.13
2024-01-24T14:20:00.613Z,102415.34
2024-01-24T14:23:04.819Z,102400.91
2024-01-24T14:26:11.091Z,102416.78
2024-01-24T14:29:14.800Z,102418.25
2024-01-24T14:32:17.392Z,102432.78
2024-01-24T14:35:20.242Z,102431.66
2024-01-24T14:38:23.022Z,102442.28
2024-01-24T14:41:27.017Z,102433.94
2024-01-24T14:44:29.971Z,102449.03
2024-01-24T14:47:32.616Z,102431.28
2024-01-24T14:50:35.222Z,102431.91
2024-01-24T14:53:37.797Z,102444.72
2024-01-24T14:56:42.244Z,102459.75
2024-01-24T14:59:45.689Z,102463.66
2024-01-24T15:02:48.484Z,102466.47
2024-01-24T15:05:51.767Z,102457.59
2024-01-24T15:08:54.574Z,102473.81
2024-01-24T15:11:59.729Z,102476.88
2024-01-24T15:15:04.390Z,102481.63
2024-01-24T15:18:07.785Z,102490.28
2024-01-24T15:21:13.414Z,102504.50
2024-01-24T15:24:16.979Z,102503.50
2024-01-24T15:27:23.008Z,102508.22
2024-01-24T15:30:25.782Z,102499.59
2024-01-24T15:33:28.699Z,102506.81
2024-01-24T15:36:31.455Z,102517.94
2024-01-24T15:39:34.747Z,102511.53
2024-01-24T15:42:42.948Z,102512.38
2024-01-24T15:45:46.987Z,102517.41
2024-01-24T15:48:50.149Z,102522.47
2024-01-24T15:51:54.626Z,102525.56
2024-01-24T15:54:57.328Z,102529.50
2024-01-24T15:58:01.439Z,102524.22
2024-01-24T16:01:05.243Z,102522.56
2024-01-24T16:04:08.344Z,102513.69
2024-01-24T16:07:11.297Z,102509.28
2024-01-24T16:10:14.294Z,102529.59
2024-01-24T16:13:18.518Z,102538.75
2024-01-24T16:16:21.255Z,102524.81
2024-01-24T16:19:24.323Z,102532.38
2024-01-24T16:22:32.932Z,102547.63
2024-01-24T16:25:39.315Z,102551.53
2024-01-24T16:28:44.484Z,102549.88
2024-01-24T16:31:47.182Z,102570.53
2024-01-24T16:34:50.098Z,102565.78
2024-01-24T16:37:53.782Z,102571.00
2024-01-24T16:40:56.417Z,102575.44
2024-01-24T16:44:00.394Z,102586.59
2024-01-24T16:47:03.154Z,102588.25
2024-01-24T16:50:06.956Z,102604.94
2024-01-24T16:53:10.803Z,102592.16
2024-01-24T16:56:13.759Z,102578.53
2024-01-24T16:59:17.727Z,102587.72
2024-01-24T17:02:20.568Z,102597.41
2024-01-24T17:05:23.789Z,102603.81
2024-01-24T17:08:26.397Z,102612.16
2024-01-24T17:11:29.046Z,102611.34
2024-01-24T17:14:33.072Z,102640.50
2024-01-24T17:17:35.816Z,102627.41
2024-01-24T17:20:38.513Z,102636.69
2024-01-24T17:23:41.197Z,102632.16
2024-01-24T17:26:43.803Z,102637.72
2024-01-24T17:29:47.957Z,102648.56
2024-01-24T17:32:50.814Z,102641.03
2024-01-24T17:35:53.471Z,102627.41
2024-01-24T17:38:56.664Z,102635.25
2024-01-24T17:41:59.473Z,102635.25
2024-01-24T17:45:03.683Z,102635.56
2024-01-24T17:48:07.397Z,102632.78
2024-01-24T17:51:10.124Z,102642.25
2024-01-24T17:54:12.821Z,102643.91
2024-01-24T17:57:16.373Z,102638.03
2024-01-24T18:00:21.077Z,102640.84
2024-01-24T18:03:23.876Z,102640.00
2024-01-24T18:06:26.514Z,102648.66
2024-01-24T18:09:29.164Z,102639.47
2024-01-24T18:12:32.527Z,102631.94
2024-01-24T18:15:36.599Z,102619.38
2024-01-24T18:18:39.514Z,102619.38
2024-01-24T18:21:42.240Z,102617.75
2024-01-24T18:24:46.942Z,102624.97
2024-01-24T18:27:49.709Z,102627.22
2024-01-24T18:30:54.089Z,102632.78
2024-01-24T18:33:56.829Z,102635.56
2024-01-24T18:36:59.656Z,102635.88
2024-01-24T18:40:02.498Z,102646.16
2024-01-24T18:43:05.965Z,102644.50
2024-01-24T18:46:10.207Z,102642.56
2024-01-24T18:49:13.321Z,102645.34
2024-01-24T18:52:16.516Z,102651.75
2024-01-24T18:55:21.902Z,102661.22
2024-01-24T18:58:26.540Z,102664.63
2024-01-24T19:01:30.704Z,102670.72
2024-01-24T19:04:33.711Z,102667.41
2024-01-24T19:07:37.278Z,102681.84
2024-01-24T19:10:39.918Z,102676.28
2024-01-24T19:13:42.731Z,102669.06
2024-01-24T19:16:46.980Z,102667.94
2024-01-24T19:19:49.764Z,102676.59
2024-01-24T19:22:54.469Z,102669.91
2024-01-24T19:25:57.324Z,102677.72
2024-01-24T19:29:00.012Z,102684.09
2024-01-24T19:32:04.200Z,102676.88
2024-01-24T19:35:07.182Z,102686.91
2024-01-24T19:38:11.033Z,102695.25
2024-01-24T19:41:13.695Z,102691.09
2024-01-24T19:44:17.902Z,102695.84
2024-01-24T19:47:22.085Z,102694.22
2024-01-24T19:50:24.873Z,102696.47
2024-01-24T19:53:33.146Z,102695.63
2024-01-24T19:56:36.414Z,102685.94
2024-01-24T19:59:39.308Z,102701.00
2024-01-24T20:02:43.242Z,102702.94
2024-01-24T20:05:45.922Z,102691.00
2024-01-24T20:08:49.327Z,102700.16
2024-01-24T20:11:54.072Z,102692.13
2024-01-24T20:14:57.028Z,102692.13
2024-01-24T20:18:01.228Z,102694.38
2024-01-24T20:21:03.909Z,102701.88
2024-01-24T20:24:08.914Z,102716.13
2024-01-24T20:27:11.688Z,102713.34
2024-01-24T20:30:14.628Z,102709.41
2024-01-24T20:33:18.648Z,102714.97
2024-01-24T20:36:23.217Z,102714.97
2024-01-24T20:39:26.592Z,102724.97
2024-01-24T20:42:30.240Z,102729.41
2024-01-24T20:45:33.079Z,102716.03
2024-01-24T20:48:37.270Z,102738.31
2024-01-24T20:51:40.732Z,102727.16
2024-01-24T20:54:43.733Z,102719.94
2024-01-24T20:57:46.654Z,102718.28
2024-01-24T21:00:49.588Z,102714.97
2024-01-24T21:03:54.533Z,102734.47
2024-01-24T21:06:58.690Z,102738.91
2024-01-24T21:10:01.548Z,102738.91
2024-01-24T21:13:04.625Z,102744.47
2024-01-24T21:16:07.293Z,102744.47
2024-01-24T21:19:17.146Z,102732.81
2024-01-24T21:22:20.091Z,102730.03
2024-01-24T21:25:22.825Z,102737.03
2024-01-24T21:28:25.465Z,102736.19
2024-01-24T21:31:28.831Z,102728.16
2024-01-24T21:34:32.994Z,102738.44
2024-01-24T21:37:35.697Z,102733.50
2024-01-24T21:40:38.426Z,102742.97
2024-01-24T21:43:41.002Z,102761.84
2024-01-24T21:46:43.645Z,102750.19
2024-01-24T21:49:48.245Z,102761.34
2024-01-24T21:52:50.935Z,102758.53
2024-01-24T21:55:53.552Z,102754.69
2024-01-24T21:58:56.442Z,102757.47
2024-01-24T22:01:59.506Z,102754.69
2024-01-24T22:05:03.575Z,102749.75
2024-01-24T22:08:07.830Z,102759.22
2024-01-24T22:11:10.780Z,102757.88
2024-01-24T22:14:13.467Z,102765.41
2024-01-24T22:17:16.093Z,102761.47
2024-01-24T22:20:20.111Z,102762.63
2024-01-24T22:23:22.754Z,102755.63
2024-01-24T22:26:25.416Z,102765.41
2024-01-24T22:29:28.252Z,102760.97
2024-01-24T22:32:30.907Z,102761.25
2024-01-24T22:35:35.016Z,102782.69
2024-01-24T22:38:37.797Z,102785.75
2024-01-24T22:41:41.699Z,102781.03
2024-01-24T22:44:44.349Z,102774.97
2024-01-24T22:47:47.000Z,102776.06
2024-01-24T22:50:51.052Z,102779.97
2024-01-24T22:53:55.569Z,102790.06
2024-01-24T22:56:58.278Z,102782.84
2024-01-24T23:00:00.929Z,102790.66
2024-01-24T23:03:03.550Z,102799.28
2024-01-24T23:06:07.785Z,102799.03
2024-01-24T23:09:10.358Z,102806.84
2024-01-24T23:12:12.973Z,102797.97
2024-01-24T23:15:15.647Z,102816.91
2024-01-24T23:18:19.026Z,102818.63
2024-01-24T23:21:23.038Z,102823.66
2024-01-24T23:24:25.625Z,102827.84
2024-01-24T23:27:28.247Z,102835.97
2024-01-24T23:30:30.892Z,102846.03
2024-01-24T23:33:35.715Z,102842.72
2024-01-24T23:36:39.963Z,102838.88
2024-01-24T23:39:42.857Z,102853.38
2024-01-24T23:42:46.335Z,102844.50
2024-01-24T23:45:49.077Z,102861.22
2024-01-24T23:48:52.326Z,102862.34
2024-01-24T23:51:56.645Z,102855.75
2024-01-24T23:54:59.494Z,102853.25
2024-01-24T23:58:02.209Z,102842.75
